Xirivella, Spain
Current Conditions -  °F | °C
As of 3:30 AM on Saturday 01 Nov 2014 (Local Time) from LEVC Reporting Station
Scattered Clouds Scattered Clouds  
Wind Chill: 64°   Ceiling: Unl
Heat Index: 64°   Visibility: 5mi
Dew Point: 59°   Wind: 3mph
Humidity: 83%   Direction: 250°WSW
Pressure: 30.21"   Gusts: NA
Location:  39.47°N, 0.43°W
Report Text: LEVC 010230Z 25003KT 8000 SCT035 18/15 Q1023 NOSIG
Loading
Personal Weather Stations






























Interactive Weather Map
Tropical Storm Tracking
New forecast layout! Learn more

10-Day Weather Forecast

Advertisements
Track Severe Weather on mobile